Time;durP1;ratioP1;P1;durP2;ratioP2;P2;SDS_P1;SDS_P2;PMS_P1;PMS_P2;Temp;Humidity;BMP_temperature;BMP_pressure;BME280_temperature;BME280_humidity;BME280_pressure;Samples;Min_cycle;Max_cycle;Signal;HPM_P1;HPM_P2
2021/01/21 00:02:32;;;;;;;2.50;1.63;;;5.40;99.90;;;;;;4974162;28;20255;-73
2021/01/21 00:05:18;;;;;;;3.03;1.70;;;5.50;99.90;;;;;;4975797;28;20302;-74
2021/01/21 00:08:04;;;;;;;3.58;1.80;;;5.50;99.90;;;;;;4974937;28;20351;-74
2021/01/21 00:10:50;;;;;;;4.45;1.67;;;5.50;99.90;;;;;;4974490;28;20230;-74
2021/01/21 00:13:35;;;;;;;5.13;1.90;;;5.60;99.90;;;;;;4976008;28;20206;-73
2021/01/21 00:16:20;;;;;;;3.85;1.98;;;5.60;99.90;;;;;;4977548;28;20697;-74
2021/01/21 00:19:05;;;;;;;5.57;1.77;;;5.60;99.90;;;;;;4972790;28;20240;-73
2021/01/21 00:21:50;;;;;;;8.07;2.47;;;5.60;99.90;;;;;;4973401;28;20227;-73
2021/01/21 00:24:36;;;;;;;4.20;2.10;;;5.50;99.90;;;;;;4978018;28;20292;-73
2021/01/21 00:27:21;;;;;;;3.97;2.22;;;5.50;99.90;;;;;;4976162;28;20310;-73
2021/01/21 00:30:09;;;;;;;5.10;1.90;;;5.40;99.90;;;;;;4981798;28;20226;-74
2021/01/21 00:32:54;;;;;;;3.70;2.42;;;5.40;99.90;;;;;;4982635;28;20206;-73
2021/01/21 00:35:40;;;;;;;5.55;2.15;;;5.40;99.90;;;;;;4988025;28;20195;-73
2021/01/21 00:38:25;;;;;;;4.40;1.90;;;5.40;99.90;;;;;;4982500;28;20234;-73
2021/01/21 00:41:11;;;;;;;3.03;2.17;;;5.40;99.90;;;;;;4987759;28;20239;-73
2021/01/21 00:43:56;;;;;;;3.75;1.90;;;5.40;99.90;;;;;;4994804;28;20249;-73
2021/01/21 00:46:41;;;;;;;3.95;2.05;;;5.40;99.90;;;;;;4980711;28;21012;-73
2021/01/21 00:49:26;;;;;;;4.97;1.75;;;5.40;99.90;;;;;;4986701;28;20721;-73
2021/01/21 00:52:11;;;;;;;4.38;2.00;;;5.50;99.90;;;;;;4994815;28;20699;-73
2021/01/21 00:54:57;;;;;;;2.88;2.00;;;5.50;99.90;;;;;;4985418;28;20250;-73
2021/01/21 00:57:43;;;;;;;4.65;1.73;;;5.60;99.90;;;;;;4983249;28;20238;-73
2021/01/21 01:00:28;;;;;;;6.88;2.33;;;5.50;99.90;;;;;;4982657;28;20599;-73
2021/01/21 01:03:13;;;;;;;3.40;1.70;;;5.40;99.90;;;;;;4988872;28;20297;-73
2021/01/21 01:05:58;;;;;;;6.85;2.13;;;5.40;99.90;;;;;;4988944;28;20219;-74
2021/01/21 01:08:44;;;;;;;3.13;1.80;;;5.50;99.90;;;;;;4989249;28;20997;-73
2021/01/21 01:11:29;;;;;;;4.93;2.20;;;5.50;99.90;;;;;;4985425;28;20279;-73
2021/01/21 01:14:15;;;;;;;3.20;1.80;;;5.60;99.90;;;;;;4982387;28;20235;-73
2021/01/21 01:17:00;;;;;;;2.85;1.50;;;5.60;99.90;;;;;;4988182;28;20739;-73
2021/01/21 01:19:45;;;;;;;3.40;1.73;;;5.60;99.90;;;;;;4988649;28;20827;-73
2021/01/21 01:22:30;;;;;;;3.17;1.60;;;5.60;99.90;;;;;;4988077;28;20207;-73
2021/01/21 01:25:15;;;;;;;5.20;2.03;;;5.70;99.90;;;;;;4991666;28;20218;-73
2021/01/21 01:28:01;;;;;;;4.80;2.30;;;5.70;99.90;;;;;;4986169;28;20580;-73
2021/01/21 01:30:47;;;;;;;3.58;1.80;;;5.80;99.90;;;;;;4987933;28;20258;-73
2021/01/21 01:33:32;;;;;;;3.10;1.70;;;5.80;99.90;;;;;;4984075;28;21710;-73
2021/01/21 01:36:17;;;;;;;6.72;2.28;;;5.80;99.90;;;;;;4989210;28;20285;-73
2021/01/21 01:39:03;;;;;;;2.55;1.65;;;6.00;99.90;;;;;;4979166;28;20243;-73
2021/01/21 01:41:48;;;;;;;3.45;2.00;;;6.10;99.90;;;;;;4986662;28;20250;-73
2021/01/21 01:44:34;;;;;;;3.83;1.35;;;6.20;99.90;;;;;;4988727;28;20704;-73
2021/01/21 01:47:20;;;;;;;2.42;1.63;;;6.20;99.90;;;;;;4987046;28;20261;-73
2021/01/21 01:50:06;;;;;;;5.03;1.52;;;6.20;99.90;;;;;;4983163;28;20230;-73
2021/01/21 01:52:53;;;;;;;2.42;1.40;;;6.30;99.90;;;;;;4979148;28;20278;-73
2021/01/21 01:55:39;;;;;;;3.22;1.63;;;6.30;99.90;;;;;;4987685;28;20836;-72
2021/01/21 01:58:26;;;;;;;2.55;1.40;;;6.40;99.90;;;;;;4986449;28;20254;-73
2021/01/21 02:01:11;;;;;;;3.05;1.60;;;6.40;99.90;;;;;;4987019;28;20227;-73
2021/01/21 02:03:57;;;;;;;3.08;1.58;;;6.50;99.90;;;;;;4982760;28;20214;-73
2021/01/21 02:06:42;;;;;;;3.30;1.67;;;6.60;99.90;;;;;;4988071;28;20222;-73
2021/01/21 02:09:28;;;;;;;2.85;1.48;;;6.70;99.90;;;;;;4989622;28;20225;-73
2021/01/21 02:12:29;;;;;;;4.57;1.75;;;6.90;99.90;;;;;;4992032;28;20227;-73
2021/01/21 02:15:30;;;;;;;4.45;1.15;;;7.10;99.90;;;;;;4989174;28;20242;-73
2021/01/21 02:18:20;;;;;;;4.65;1.85;;;7.60;99.10;;;;;;4981434;28;20269;-73
2021/01/21 02:21:39;;;;;;;5.32;1.50;;;8.10;94.20;;;;;;4985653;28;20330;-73
2021/01/21 02:24:59;;;;;;;3.70;1.50;;;8.40;94.10;;;;;;4983989;28;20214;-73
2021/01/21 02:28:05;;;;;;;3.30;1.10;;;8.60;85.70;;;;;;4986347;28;20513;-73
2021/01/21 02:31:01;;;;;;;2.17;1.10;;;8.60;90.10;;;;;;4981032;28;20265;-73
2021/01/21 02:33:57;;;;;;;4.63;1.33;;;8.60;89.70;;;;;;4989729;28;20241;-73
2021/01/21 02:36:45;;;;;;;3.47;1.80;;;8.60;90.40;;;;;;4985602;28;20210;-73
2021/01/21 02:39:30;;;;;;;2.28;1.48;;;8.60;88.90;;;;;;4987517;28;20238;-73
2021/01/21 02:42:16;;;;;;;1.80;1.02;;;8.60;85.10;;;;;;4992311;28;20215;-73
2021/01/21 02:45:00;;;;;;;2.00;1.10;;;8.50;88.80;;;;;;4999308;28;20210;-73
2021/01/21 02:47:46;;;;;;;1.70;1.02;;;8.50;89.30;;;;;;4991366;28;20461;-73
2021/01/21 02:50:32;;;;;;;2.65;1.35;;;8.50;90.30;;;;;;4984323;28;20207;-73
2021/01/21 02:53:18;;;;;;;2.30;1.17;;;8.50;88.80;;;;;;4991529;28;20780;-73
2021/01/21 02:56:08;;;;;;;2.95;1.58;;;8.50;87.80;;;;;;4992324;28;20445;-73
2021/01/21 02:58:55;;;;;;;2.85;1.35;;;8.40;90.20;;;;;;4989877;28;20317;-73
2021/01/21 03:01:43;;;;;;;2.47;1.30;;;8.50;87.90;;;;;;4981390;28;20258;-73
2021/01/21 03:04:30;;;;;;;3.70;1.67;;;8.40;90.20;;;;;;4985344;28;20450;-73
2021/01/21 03:07:17;;;;;;;4.85;1.40;;;8.40;90.00;;;;;;4989766;28;20761;-73
2021/01/21 03:10:03;;;;;;;3.00;1.23;;;8.40;87.30;;;;;;4987695;28;20235;-73
2021/01/21 03:12:52;;;;;;;3.40;2.20;;;8.50;86.90;;;;;;4992996;28;20214;-73
2021/01/21 03:15:38;;;;;;;3.23;1.50;;;8.50;88.40;;;;;;4980644;28;20199;-73
2021/01/21 03:18:23;;;;;;;2.43;1.20;;;8.50;84.40;;;;;;4986498;28;21003;-73
2021/01/21 03:21:08;;;;;;;4.43;1.60;;;8.60;84.50;;;;;;4995854;28;20450;-74
2021/01/21 03:23:54;;;;;;;3.03;2.00;;;8.70;83.50;;;;;;4988662;28;20828;-73
2021/01/21 03:26:39;;;;;;;3.13;1.42;;;8.70;84.60;;;;;;4982508;28;20979;-73
2021/01/21 03:29:26;;;;;;;3.58;1.45;;;8.70;83.00;;;;;;4986348;28;20648;-73
2021/01/21 03:32:11;;;;;;;2.97;1.60;;;8.70;83.10;;;;;;4987529;28;20207;-73
2021/01/21 03:34:56;;;;;;;2.27;1.23;;;8.90;81.60;;;;;;4991119;28;20255;-73
2021/01/21 03:37:41;;;;;;;2.85;1.40;;;8.90;81.40;;;;;;4992235;28;20987;-73
2021/01/21 03:40:27;;;;;;;4.28;1.42;;;9.00;76.40;;;;;;4989694;28;20542;-74
2021/01/21 03:43:12;;;;;;;13.00;2.40;;;9.40;71.10;;;;;;4996760;28;20210;-73
2021/01/21 03:45:57;;;;;;;2.27;1.10;;;9.70;66.50;;;;;;4989088;28;20467;-73
2021/01/21 03:48:43;;;;;;;1.73;0.80;;;9.90;65.70;;;;;;4985088;28;20510;-73
2021/01/21 03:51:29;;;;;;;3.03;1.23;;;10.10;62.10;;;;;;4985494;28;20525;-73
2021/01/21 03:54:14;;;;;;;3.23;1.27;;;10.50;58.00;;;;;;4986811;28;20451;-73
2021/01/21 03:57:00;;;;;;;2.90;1.40;;;10.50;59.50;;;;;;4991393;28;20537;-73
2021/01/21 03:59:45;;;;;;;2.87;1.50;;;10.60;57.80;;;;;;4991492;28;20533;-73
2021/01/21 04:02:30;;;;;;;3.20;1.50;;;10.70;56.60;;;;;;4985912;28;20521;-73
2021/01/21 04:05:15;;;;;;;2.57;1.53;;;10.90;55.00;;;;;;4989978;28;20450;-73
2021/01/21 04:08:00;;;;;;;2.13;1.20;;;10.90;54.10;;;;;;4981509;28;20443;-73
2021/01/21 04:10:45;;;;;;;3.67;1.33;;;11.10;53.60;;;;;;4985013;28;20445;-73
2021/01/21 04:13:31;;;;;;;3.50;1.33;;;11.10;53.30;;;;;;4985294;28;20445;-73
2021/01/21 04:16:16;;;;;;;2.70;1.50;;;11.10;53.00;;;;;;4989559;28;20433;-73
2021/01/21 04:19:01;;;;;;;2.73;1.50;;;11.10;52.90;;;;;;4995159;28;20478;-73
2021/01/21 04:21:47;;;;;;;2.30;1.40;;;11.10;52.80;;;;;;4990963;28;20450;-73
2021/01/21 04:24:32;;;;;;;2.73;1.40;;;11.10;52.20;;;;;;4989869;28;20478;-73
2021/01/21 04:27:17;;;;;;;3.77;1.40;;;11.10;52.80;;;;;;4983761;28;20529;-73
2021/01/21 04:30:04;;;;;;;3.70;1.10;;;11.20;50.10;;;;;;4995853;28;20492;-73
2021/01/21 04:32:50;;;;;;;3.03;1.70;;;11.30;50.30;;;;;;4980542;28;20839;-73
2021/01/21 04:35:35;;;;;;;3.27;1.50;;;11.30;51.50;;;;;;4991021;28;20524;-73
2021/01/21 04:38:20;;;;;;;4.33;1.50;;;11.20;52.10;;;;;;4982800;28;20462;-72
2021/01/21 04:41:05;;;;;;;2.07;1.27;;;11.10;50.90;;;;;;4989125;28;20967;-73
2021/01/21 04:43:50;;;;;;;3.07;1.10;;;11.20;51.10;;;;;;4983363;28;20450;-73
2021/01/21 04:46:37;;;;;;;3.63;1.50;;;11.20;50.00;;;;;;4990688;28;20509;-73
2021/01/21 04:49:23;;;;;;;2.63;1.53;;;11.20;50.20;;;;;;4985458;28;20474;-73
2021/01/21 04:52:11;;;;;;;3.03;1.50;;;11.30;50.70;;;;;;4991982;28;20442;-73
2021/01/21 04:55:02;;;;;;;4.90;1.20;;;11.20;50.60;;;;;;4988672;28;21010;-73
2021/01/21 04:57:53;;;;;;;4.20;1.37;;;11.20;50.60;;;;;;4983575;28;20446;-73
2021/01/21 05:00:39;;;;;;;2.07;1.10;;;11.20;50.10;;;;;;4980206;28;20462;-73
2021/01/21 05:03:25;;;;;;;2.43;1.20;;;11.30;49.50;;;;;;4988213;28;20450;-73
2021/01/21 05:06:10;;;;;;;2.50;1.40;;;11.30;49.40;;;;;;4981241;28;20518;-72
2021/01/21 05:08:56;;;;;;;3.97;1.17;;;11.30;49.90;;;;;;4987249;28;20473;-73
2021/01/21 05:11:42;;;;;;;2.83;1.40;;;11.30;50.20;;;;;;4984724;28;20478;-73
2021/01/21 05:14:27;;;;;;;3.17;1.30;;;11.30;49.30;;;;;;4978084;28;20450;-72
2021/01/21 05:17:12;;;;;;;2.73;1.30;;;11.40;49.10;;;;;;4987960;28;21012;-72
2021/01/21 05:19:59;;;;;;;3.13;1.30;;;11.40;49.50;;;;;;4986475;28;20502;-73
2021/01/21 05:22:44;;;;;;;7.27;1.40;;;11.30;50.70;;;;;;4983804;28;20584;-72
2021/01/21 05:25:29;;;;;;;4.57;1.70;;;11.40;48.70;;;;;;4981560;28;20497;-73
2021/01/21 05:28:14;;;;;;;3.33;1.33;;;11.40;48.70;;;;;;4980988;28;20521;-72
2021/01/21 05:31:00;;;;;;;3.37;1.60;;;11.40;48.20;;;;;;4987884;28;20447;-73
2021/01/21 05:33:46;;;;;;;3.10;1.63;;;11.40;48.70;;;;;;4982101;28;20446;-72
2021/01/21 05:36:36;;;;;;;3.07;1.30;;;11.30;48.70;;;;;;4988973;28;20441;-72
2021/01/21 05:39:21;;;;;;;2.40;1.30;;;11.20;48.80;;;;;;4985847;28;20560;-73
2021/01/21 05:42:07;;;;;;;4.27;1.80;;;11.20;49.10;;;;;;4993441;28;20490;-72
2021/01/21 05:44:53;;;;;;;3.87;1.47;;;11.20;49.20;;;;;;4988310;28;20450;-73
2021/01/21 05:47:39;;;;;;;3.87;1.23;;;11.10;49.30;;;;;;4988006;28;20469;-72
2021/01/21 05:50:25;;;;;;;2.00;1.17;;;11.10;48.80;;;;;;4993110;28;20504;-72
2021/01/21 05:53:11;;;;;;;3.67;1.23;;;11.20;48.80;;;;;;4986750;28;20509;-73
2021/01/21 05:55:56;;;;;;;2.90;1.30;;;11.20;49.10;;;;;;4989240;28;20446;-73
2021/01/21 05:58:43;;;;;;;4.73;1.30;;;11.10;49.60;;;;;;4988517;28;20538;-72
2021/01/21 06:01:28;;;;;;;3.67;1.40;;;11.10;49.70;;;;;;4983265;28;21228;-73
2021/01/21 06:04:14;;;;;;;6.20;1.27;;;11.00;49.90;;;;;;4988086;28;20442;-72
2021/01/21 06:07:00;;;;;;;2.50;1.33;;;11.10;50.40;;;;;;4982601;28;20471;-73
2021/01/21 06:09:46;;;;;;;6.43;2.73;;;11.20;49.70;;;;;;4991507;28;20501;-73
2021/01/21 06:12:33;;;;;;;6.53;1.80;;;11.40;50.00;;;;;;4990427;28;20445;-73
2021/01/21 06:15:19;;;;;;;3.50;1.70;;;11.30;49.60;;;;;;4991818;28;20596;-73
2021/01/21 06:18:05;;;;;;;3.10;1.37;;;11.30;51.00;;;;;;4997922;28;20462;-73
2021/01/21 06:20:50;;;;;;;3.93;1.63;;;11.40;50.80;;;;;;4984733;28;20530;-72
2021/01/21 06:23:36;;;;;;;4.60;2.50;;;11.30;51.50;;;;;;4988272;28;20870;-73
2021/01/21 06:26:23;;;;;;;3.10;1.60;;;11.30;52.50;;;;;;4991849;28;20889;-73
2021/01/21 06:29:14;;;;;;;4.60;2.20;;;11.20;52.20;;;;;;4992649;28;20529;-73
2021/01/21 06:32:02;;;;;;;2.47;1.40;;;11.10;53.00;;;;;;4996350;28;20501;-73
2021/01/21 06:34:48;;;;;;;3.60;1.60;;;11.10;52.70;;;;;;4983126;28;20509;-73
2021/01/21 06:37:36;;;;;;;2.93;1.77;;;11.20;51.80;;;;;;4988716;28;20453;-73
2021/01/21 06:40:25;;;;;;;3.43;1.60;;;11.20;52.30;;;;;;4997560;28;20493;-73
2021/01/21 06:43:14;;;;;;;3.20;1.40;;;11.20;51.60;;;;;;4992965;28;20509;-73
2021/01/21 06:46:01;;;;;;;5.00;3.00;;;11.20;52.00;;;;;;4992858;28;20631;-73
2021/01/21 06:48:48;;;;;;;4.00;2.50;;;11.20;52.60;;;;;;4991666;28;20489;-73
2021/01/21 06:51:34;;;;;;;3.50;1.80;;;11.20;52.50;;;;;;4990963;28;20453;-73
2021/01/21 06:54:21;;;;;;;8.90;2.07;;;11.30;52.60;;;;;;4991999;28;20529;-73
2021/01/21 06:57:44;;;;;;;27.67;11.40;;;11.40;52.30;;;;;;4993659;28;20446;-73
2021/01/21 07:00:41;;;;;;;11.43;4.77;;;11.40;52.20;;;;;;4987010;28;20516;-73
2021/01/21 07:03:27;;;;;;;4.17;1.40;;;11.40;53.10;;;;;;4984718;28;20484;-73
2021/01/21 07:06:13;;;;;;;5.50;1.80;;;11.40;53.30;;;;;;4990976;28;20477;-73
2021/01/21 07:09:05;;;;;;;2.00;1.10;;;11.40;54.00;;;;;;4990847;28;20602;-73
2021/01/21 07:11:54;;;;;;;5.80;2.90;;;11.50;54.00;;;;;;4990749;28;20469;-73
2021/01/21 07:14:41;;;;;;;3.80;1.30;;;11.50;55.10;;;;;;4991172;28;20531;-73
2021/01/21 07:17:29;;;;;;;2.30;1.20;;;11.50;55.90;;;;;;4977173;28;20447;-73
2021/01/21 07:20:15;;;;;;;5.60;1.60;;;11.40;57.30;;;;;;4980944;28;20571;-73
2021/01/21 07:23:05;;;;;;;2.30;1.33;;;11.30;60.10;;;;;;4993723;28;20445;-73
2021/01/21 07:25:50;;;;;;;4.37;1.20;;;11.30;61.80;;;;;;4987832;28;20497;-73
2021/01/21 07:28:51;;;;;;;2.37;1.30;;;11.20;62.60;;;;;;4989607;28;20468;-73
2021/01/21 07:32:05;;;;;;;6.60;1.40;;;11.10;63.20;;;;;;4986259;28;20450;-73
2021/01/21 07:34:51;;;;;;;3.90;1.33;;;11.20;64.20;;;;;;4988899;28;20442;-73
2021/01/21 07:37:44;;;;;;;4.37;1.47;;;11.20;66.60;;;;;;4987670;28;20446;-73
2021/01/21 07:40:44;;;;;;;3.20;1.60;;;11.10;68.20;;;;;;4987390;28;20450;-73
2021/01/21 07:43:55;;;;;;;2.13;1.00;;;11.10;70.70;;;;;;4996927;28;20453;-73
2021/01/21 07:46:41;;;;;;;2.87;1.33;;;11.00;73.80;;;;;;4985415;28;20470;-73
2021/01/21 07:49:27;;;;;;;2.20;1.00;;;11.00;75.60;;;;;;4977620;28;21246;-73
2021/01/21 07:52:13;;;;;;;3.50;1.40;;;11.00;77.50;;;;;;4991435;28;20461;-73
2021/01/21 07:54:58;;;;;;;4.27;1.27;;;10.90;79.80;;;;;;4991769;28;20890;-73
2021/01/21 07:57:43;;;;;;;5.10;1.40;;;11.00;81.10;;;;;;4989378;28;20467;-73
2021/01/21 08:00:29;;;;;;;2.27;1.47;;;11.10;81.30;;;;;;4984956;28;20719;-73
2021/01/21 08:03:14;;;;;;;5.10;1.23;;;11.10;82.60;;;;;;4988116;28;20483;-73
2021/01/21 08:06:18;;;;;;;4.43;1.77;;;11.10;83.10;;;;;;4984976;28;20476;-73
2021/01/21 08:09:12;;;;;;;3.77;1.00;;;11.10;84.00;;;;;;4992959;28;20517;-73
2021/01/21 08:11:57;;;;;;;2.00;0.90;;;11.20;84.10;;;;;;4990773;28;20446;-73
2021/01/21 08:14:42;;;;;;;2.27;1.07;;;11.30;84.10;;;;;;4979833;28;20447;-73
2021/01/21 08:17:27;;;;;;;2.33;1.27;;;11.30;85.10;;;;;;4986766;28;20489;-73
2021/01/21 08:20:13;;;;;;;2.80;1.17;;;11.40;84.60;;;;;;4988185;28;20509;-73
2021/01/21 08:23:00;;;;;;;2.13;0.90;;;11.40;85.20;;;;;;4988436;28;21100;-73
2021/01/21 08:25:47;;;;;;;2.00;1.20;;;11.50;85.90;;;;;;4994420;28;20473;-73
2021/01/21 08:28:32;;;;;;;2.20;1.10;;;11.40;85.80;;;;;;4987611;28;20859;-74
2021/01/21 08:31:19;;;;;;;2.20;1.20;;;11.50;87.00;;;;;;4985412;28;20445;-74
2021/01/21 08:34:07;;;;;;;1.70;0.97;;;11.50;87.00;;;;;;4990303;28;20553;-73
2021/01/21 08:37:02;;;;;;;1.87;0.93;;;11.70;87.60;;;;;;4987744;28;20534;-73
2021/01/21 08:39:47;;;;;;;6.00;1.40;;;11.80;87.10;;;;;;4989773;28;20466;-73
2021/01/21 08:42:33;;;;;;;1.97;0.80;;;11.90;93.30;;;;;;4988932;28;21046;-72
2021/01/21 08:45:20;;;;;;;1.80;0.83;;;12.10;94.60;;;;;;4987085;28;20450;-73
2021/01/21 08:48:06;;;;;;;1.67;0.80;;;12.20;93.30;;;;;;4983544;28;20882;-73
2021/01/21 08:50:51;;;;;;;4.93;1.17;;;12.20;89.40;;;;;;4987368;28;20446;-74
2021/01/21 08:53:37;;;;;;;2.33;1.23;;;12.20;89.20;;;;;;4984156;28;20450;-74
2021/01/21 08:56:22;;;;;;;1.93;0.77;;;12.10;89.30;;;;;;4990476;28;20970;-74
2021/01/21 08:59:33;;;;;;;2.23;1.20;;;11.90;89.80;;;;;;4977943;28;20525;-74
2021/01/21 09:02:42;;;;;;;1.90;1.00;;;11.90;90.50;;;;;;4980623;28;20477;-75
2021/01/21 09:05:28;;;;;;;2.63;1.00;;;11.90;90.60;;;;;;4982146;28;20618;-74
2021/01/21 09:08:13;;;;;;;7.97;0.90;;;11.90;90.80;;;;;;4985931;28;20505;-74
2021/01/21 09:10:58;;;;;;;3.90;0.90;;;11.80;92.10;;;;;;4986046;28;20863;-74
2021/01/21 09:13:49;;;;;;;1.57;0.80;;;11.80;93.70;;;;;;4987506;28;20473;-75
2021/01/21 09:16:42;;;;;;;2.73;1.10;;;11.80;94.40;;;;;;4984606;28;20467;-74
2021/01/21 09:19:42;;;;;;;3.83;1.97;;;11.70;94.70;;;;;;4992128;28;21014;-74
2021/01/21 09:22:38;;;;;;;5.77;1.50;;;11.60;95.30;;;;;;4987150;28;20466;-73
2021/01/21 09:25:25;;;;;;;2.20;1.10;;;11.60;95.80;;;;;;4992864;28;21078;-72
2021/01/21 09:28:13;;;;;;;2.50;1.40;;;11.60;96.30;;;;;;4991115;28;20875;-72
2021/01/21 09:30:58;;;;;;;3.00;1.77;;;11.60;96.90;;;;;;4988066;28;20457;-73
2021/01/21 09:33:44;;;;;;;2.90;1.17;;;11.50;98.00;;;;;;4988599;28;20961;-73
2021/01/21 09:36:30;;;;;;;2.80;1.40;;;11.50;99.40;;;;;;4986324;28;21022;-73
2021/01/21 09:39:15;;;;;;;1.83;1.00;;;11.50;99.90;;;;;;4980714;28;20471;-73
2021/01/21 09:42:00;;;;;;;1.60;0.87;;;11.50;99.90;;;;;;4981305;28;20501;-73
2021/01/21 09:44:45;;;;;;;2.40;1.00;;;11.40;99.90;;;;;;4980156;28;20497;-73
2021/01/21 09:47:31;;;;;;;1.90;0.90;;;11.40;99.90;;;;;;4980700;28;20482;-72
2021/01/21 09:50:17;;;;;;;2.13;1.23;;;11.40;99.90;;;;;;4975742;28;20514;-72
2021/01/21 09:53:02;;;;;;;1.83;0.90;;;11.40;99.90;;;;;;4975771;28;20599;-72
2021/01/21 09:55:49;;;;;;;3.53;2.00;;;11.20;99.90;;;;;;4975807;28;20501;-72
2021/01/21 09:58:34;;;;;;;5.00;1.53;;;11.20;99.90;;;;;;4977537;28;20567;-73
2021/01/21 10:01:19;;;;;;;2.97;1.20;;;11.10;99.90;;;;;;4974217;28;20474;-74
2021/01/21 10:04:05;;;;;;;1.83;0.90;;;11.10;99.90;;;;;;4979175;28;20956;-75
2021/01/21 10:06:51;;;;;;;2.20;1.30;;;11.10;99.90;;;;;;4976921;28;21016;-74
2021/01/21 10:09:36;;;;;;;1.80;0.90;;;11.00;99.90;;;;;;4979520;28;20462;-74
2021/01/21 10:12:22;;;;;;;2.40;1.27;;;10.90;99.90;;;;;;4977440;28;20513;-74
2021/01/21 10:15:08;;;;;;;2.90;0.90;;;11.00;99.90;;;;;;4975719;28;20482;-74
2021/01/21 10:17:53;;;;;;;2.60;0.87;;;11.00;99.90;;;;;;4977857;28;20573;-74
2021/01/21 10:20:39;;;;;;;1.97;0.83;;;11.00;99.90;;;;;;4979369;28;20552;-74
2021/01/21 10:23:25;;;;;;;2.00;1.10;;;11.00;99.90;;;;;;4973757;28;21008;-74
2021/01/21 10:26:10;;;;;;;2.20;1.00;;;11.00;99.90;;;;;;4973924;28;20437;-72
2021/01/21 10:28:55;;;;;;;2.20;0.90;;;11.00;99.90;;;;;;4972185;28;20525;-73
2021/01/21 10:31:41;;;;;;;2.63;1.20;;;11.00;99.90;;;;;;4974456;28;20957;-73
2021/01/21 10:34:26;;;;;;;2.37;1.50;;;11.00;99.90;;;;;;4973358;28;20490;-73
2021/01/21 10:37:11;;;;;;;2.40;1.37;;;11.10;99.90;;;;;;4975208;28;20483;-74
2021/01/21 10:39:57;;;;;;;5.00;1.60;;;11.10;99.90;;;;;;4973644;28;20462;-74
2021/01/21 10:42:42;;;;;;;2.93;1.13;;;11.10;99.90;;;;;;4972852;28;20446;-73
2021/01/21 10:45:27;;;;;;;2.00;1.10;;;11.20;99.90;;;;;;4975403;28;20447;-75
2021/01/21 10:48:12;;;;;;;2.63;1.47;;;11.20;99.90;;;;;;4978730;28;20646;-74
2021/01/21 10:50:57;;;;;;;2.43;1.40;;;11.20;99.90;;;;;;4981320;28;20443;-74
2021/01/21 10:53:43;;;;;;;2.50;1.30;;;11.20;99.90;;;;;;4977752;28;20454;-74
2021/01/21 10:56:29;;;;;;;2.43;1.00;;;11.20;99.90;;;;;;4979649;28;20530;-74
2021/01/21 10:59:14;;;;;;;3.73;2.20;;;11.20;99.90;;;;;;4976757;28;20548;-75
2021/01/21 11:02:00;;;;;;;2.50;1.30;;;11.20;99.90;;;;;;4981729;28;20502;-75
2021/01/21 11:04:45;;;;;;;1.60;0.80;;;11.20;99.90;;;;;;4979396;28;20486;-74
2021/01/21 11:07:31;;;;;;;5.00;1.23;;;11.20;99.90;;;;;;4974201;28;20888;-73
2021/01/21 11:10:16;;;;;;;2.97;1.37;;;11.10;99.90;;;;;;4975188;28;20545;-72
2021/01/21 11:13:02;;;;;;;3.80;1.37;;;11.00;99.90;;;;;;4977471;28;20526;-75
2021/01/21 11:15:48;;;;;;;2.47;1.00;;;11.10;99.90;;;;;;4974803;28;20443;-75
2021/01/21 11:18:34;;;;;;;2.97;1.20;;;11.00;99.90;;;;;;4980946;28;20545;-74
2021/01/21 11:21:19;;;;;;;2.47;1.30;;;10.90;99.90;;;;;;4976014;28;20874;-75
2021/01/21 11:24:05;;;;;;;1.70;1.00;;;10.90;99.90;;;;;;4976501;28;20490;-74
2021/01/21 11:26:50;;;;;;;3.87;1.30;;;10.90;99.90;;;;;;4975963;28;20466;-73
2021/01/21 11:29:36;;;;;;;2.03;1.13;;;10.80;99.90;;;;;;4978454;28;20475;-73
2021/01/21 11:32:21;;;;;;;3.50;1.33;;;10.70;99.90;;;;;;4975028;28;20441;-73
2021/01/21 11:35:07;;;;;;;2.47;1.23;;;10.50;99.90;;;;;;4975654;28;20492;-73
2021/01/21 11:37:53;;;;;;;2.47;1.47;;;10.50;99.90;;;;;;4973726;28;20454;-73
2021/01/21 11:40:40;;;;;;;3.63;2.03;;;10.20;99.90;;;;;;4980788;28;20488;-73
2021/01/21 11:43:27;;;;;;;3.33;1.70;;;10.00;99.90;;;;;;4977490;28;20446;-73
2021/01/21 11:46:13;;;;;;;2.10;1.10;;;9.80;99.90;;;;;;4975433;28;20587;-73
2021/01/21 11:48:58;;;;;;;1.93;0.93;;;9.80;99.90;;;;;;4973508;28;20570;-73
2021/01/21 11:51:44;;;;;;;3.43;1.60;;;9.60;99.90;;;;;;4976233;28;20429;-74
2021/01/21 11:54:29;;;;;;;3.20;1.33;;;9.50;99.90;;;;;;4974467;28;20447;-73
2021/01/21 11:57:14;;;;;;;3.80;1.20;;;9.50;99.90;;;;;;4975742;28;20498;-74
2021/01/21 11:59:59;;;;;;;2.90;0.80;;;9.50;99.90;;;;;;4976200;28;20474;-74
2021/01/21 12:02:45;;;;;;;1.60;0.80;;;9.50;99.90;;;;;;4975617;28;20965;-73
2021/01/21 12:05:30;;;;;;;2.00;1.23;;;9.30;99.90;;;;;;4974549;28;20486;-74
2021/01/21 12:08:15;;;;;;;1.50;0.90;;;9.20;99.90;;;;;;4972997;28;20478;-74
2021/01/21 12:11:00;;;;;;;4.53;1.03;;;9.10;99.90;;;;;;4977027;28;20479;-74
2021/01/21 12:13:46;;;;;;;2.07;1.17;;;9.10;99.90;;;;;;4976972;28;20450;-74
2021/01/21 12:16:31;;;;;;;4.47;1.23;;;9.00;99.90;;;;;;4974502;28;20535;-74
2021/01/21 12:19:17;;;;;;;2.93;2.10;;;8.90;99.90;;;;;;4974714;28;20479;-72
2021/01/21 12:22:02;;;;;;;2.93;1.63;;;8.80;99.90;;;;;;4978096;28;22102;-72
2021/01/21 12:24:47;;;;;;;2.00;1.17;;;8.80;99.90;;;;;;4979965;28;20446;-72
2021/01/21 12:27:32;;;;;;;2.80;1.60;;;8.80;99.90;;;;;;4971783;28;20996;-73
2021/01/21 12:30:19;;;;;;;2.40;1.30;;;8.80;99.90;;;;;;4975490;28;20486;-72
2021/01/21 12:33:05;;;;;;;2.33;1.23;;;8.90;99.90;;;;;;4971652;28;20497;-73
2021/01/21 12:35:51;;;;;;;2.03;1.13;;;8.90;99.90;;;;;;4972920;28;20451;-73
2021/01/21 12:38:36;;;;;;;2.73;1.63;;;9.00;99.90;;;;;;4971077;28;20503;-73
2021/01/21 12:41:21;;;;;;;2.20;1.55;;;9.00;99.90;;;;;;4972692;28;20499;-73
2021/01/21 12:44:07;;;;;;;3.67;2.20;;;9.00;99.90;;;;;;4974532;28;20215;-73
2021/01/21 12:46:52;;;;;;;4.40;2.37;;;9.00;99.90;;;;;;4974163;28;21122;-74
2021/01/21 12:49:37;;;;;;;3.07;1.80;;;8.90;99.90;;;;;;4975900;28;20490;-73
2021/01/21 12:52:23;;;;;;;5.70;1.80;;;8.90;99.90;;;;;;4979373;28;20500;-73
2021/01/21 12:55:11;;;;;;;2.30;1.05;;;8.90;99.90;;;;;;4975870;28;21020;-74
2021/01/21 12:57:56;;;;;;;1.40;0.67;;;8.90;99.90;;;;;;4974249;28;20251;-74
2021/01/21 13:00:41;;;;;;;2.60;0.80;;;8.90;99.90;;;;;;4974034;28;20450;-74
2021/01/21 13:03:26;;;;;;;1.58;0.82;;;8.80;99.90;;;;;;4976642;28;20246;-74
2021/01/21 13:06:11;;;;;;;2.70;1.00;;;8.80;99.90;;;;;;4978405;28;20219;-74
2021/01/21 13:08:57;;;;;;;7.37;1.27;;;8.80;99.90;;;;;;4972499;28;20483;-73
2021/01/21 13:11:42;;;;;;;2.20;1.00;;;8.80;99.90;;;;;;4973407;28;20534;-73
2021/01/21 13:14:27;;;;;;;5.50;1.97;;;8.80;99.90;;;;;;4971837;28;20447;-73
2021/01/21 13:17:12;;;;;;;6.73;1.93;;;8.80;99.90;;;;;;4972420;28;20828;-73
2021/01/21 13:19:58;;;;;;;4.93;2.07;;;8.80;99.90;;;;;;4973891;28;20492;-74
2021/01/21 13:22:43;;;;;;;5.60;1.70;;;8.70;99.90;;;;;;4973784;28;20463;-73
2021/01/21 13:25:29;;;;;;;4.97;2.40;;;8.70;99.90;;;;;;4976904;28;20450;-74
2021/01/21 13:28:14;;;;;;;3.47;1.17;;;8.80;99.90;;;;;;4975164;28;20569;-74
2021/01/21 13:30:59;;;;;;;4.03;1.20;;;8.90;99.90;;;;;;4975008;28;20464;-73
2021/01/21 13:33:45;;;;;;;2.63;1.00;;;8.90;99.90;;;;;;4972028;28;20447;-73
2021/01/21 13:36:32;;;;;;;3.90;1.13;;;8.90;99.90;;;;;;4977105;28;20479;-73
2021/01/21 13:39:17;;;;;;;3.20;1.13;;;8.90;99.90;;;;;;4975356;28;20470;-72
2021/01/21 13:42:03;;;;;;;2.85;1.02;;;8.90;99.90;;;;;;4976816;28;20450;-72
2021/01/21 13:44:49;;;;;;;8.00;2.97;;;9.00;99.90;;;;;;4971914;28;20211;-73
2021/01/21 13:47:34;;;;;;;9.30;1.33;;;9.00;99.90;;;;;;4971808;28;20479;-73
2021/01/21 13:50:19;;;;;;;2.73;1.00;;;8.90;99.90;;;;;;4973983;28;20562;-74
2021/01/21 13:53:04;;;;;;;3.90;1.60;;;8.80;99.90;;;;;;4978100;28;20505;-74
2021/01/21 13:55:50;;;;;;;7.20;2.03;;;8.90;99.90;;;;;;4972687;28;20528;-73
2021/01/21 13:58:35;;;;;;;3.73;1.10;;;8.90;99.90;;;;;;4970053;28;20471;-73
2021/01/21 14:01:20;;;;;;;4.83;1.43;;;8.90;99.90;;;;;;4975976;28;20979;-73
2021/01/21 14:04:06;;;;;;;2.57;1.00;;;8.80;99.90;;;;;;4974884;28;20443;-72
2021/01/21 14:06:51;;;;;;;4.53;1.43;;;8.70;99.90;;;;;;4974415;28;20539;-73
2021/01/21 14:09:36;;;;;;;10.60;2.43;;;8.60;99.90;;;;;;4974805;28;20541;-74
2021/01/21 14:12:22;;;;;;;2.95;1.10;;;8.50;99.90;;;;;;4972433;28;20890;-74
2021/01/21 14:15:09;;;;;;;2.73;1.20;;;8.40;99.90;;;;;;4972427;28;20232;-74
2021/01/21 14:17:54;;;;;;;8.00;2.07;;;8.50;99.90;;;;;;4975621;28;20517;-74
2021/01/21 14:20:39;;;;;;;3.07;1.40;;;8.40;99.90;;;;;;4973141;28;20525;-73
2021/01/21 14:23:24;;;;;;;3.70;1.07;;;8.30;99.90;;;;;;4973135;28;20493;-73
2021/01/21 14:26:10;;;;;;;3.57;1.40;;;8.20;99.90;;;;;;4970781;28;20471;-73
2021/01/21 14:28:55;;;;;;;1.80;1.10;;;8.10;99.90;;;;;;4971623;28;20485;-74
2021/01/21 14:31:41;;;;;;;3.07;1.10;;;8.00;99.90;;;;;;4980902;28;20569;-73
2021/01/21 14:34:26;;;;;;;1.92;1.20;;;8.00;99.90;;;;;;4974824;28;20447;-73